sensor_id;sensor_type;location;lat;lon;timestamp;temperature;humidity
19966;DHT22;10144;50.874;4.762;2023-05-23T00:01:15;14.90;99.90
19966;DHT22;10144;50.874;4.762;2023-05-23T00:03:44;15.00;99.90
19966;DHT22;10144;50.874;4.762;2023-05-23T00:06:22;15.00;99.90
19966;DHT22;10144;50.874;4.762;2023-05-23T00:08:50;15.10;99.90
19966;DHT22;10144;50.874;4.762;2023-05-23T00:11:19;15.10;99.90
19966;DHT22;10144;50.874;4.762;2023-05-23T00:13:52;15.10;99.90
19966;DHT22;10144;50.874;4.762;2023-05-23T00:16:19;15.10;99.90
19966;DHT22;10144;50.874;4.762;2023-05-23T00:18:47;15.20;99.90
19966;DHT22;10144;50.874;4.762;2023-05-23T00:21:27;15.20;99.90
19966;DHT22;10144;50.874;4.762;2023-05-23T00:24:03;15.20;99.90
19966;DHT22;10144;50.874;4.762;2023-05-23T00:26:32;15.10;99.90
19966;DHT22;10144;50.874;4.762;2023-05-23T00:28:58;15.20;99.90
19966;DHT22;10144;50.874;4.762;2023-05-23T00:31:33;15.20;99.90
19966;DHT22;10144;50.874;4.762;2023-05-23T00:34:02;15.20;99.90
19966;DHT22;10144;50.874;4.762;2023-05-23T00:36:31;15.20;99.90
19966;DHT22;10144;50.874;4.762;2023-05-23T00:39:05;15.10;99.90
19966;DHT22;10144;50.874;4.762;2023-05-23T00:44:47;15.00;99.90
19966;DHT22;10144;50.874;4.762;2023-05-23T00:47:13;15.00;99.90
19966;DHT22;10144;50.874;4.762;2023-05-23T00:49:47;15.10;99.90
19966;DHT22;10144;50.874;4.762;2023-05-23T00:52:15;15.10;99.90
19966;DHT22;10144;50.874;4.762;2023-05-23T00:55:04;15.10;99.90
19966;DHT22;10144;50.874;4.762;2023-05-23T00:57:42;15.20;99.90
19966;DHT22;10144;50.874;4.762;2023-05-23T01:00:11;15.30;99.90
19966;DHT22;10144;50.874;4.762;2023-05-23T01:02:44;15.20;99.90
19966;DHT22;10144;50.874;4.762;2023-05-23T01:05:14;15.20;99.90
19966;DHT22;10144;50.874;4.762;2023-05-23T01:07:49;15.30;99.90
19966;DHT22;10144;50.874;4.762;2023-05-23T01:10:19;15.20;99.90
19966;DHT22;10144;50.874;4.762;2023-05-23T01:16:12;15.10;99.90
19966;DHT22;10144;50.874;4.762;2023-05-23T01:19:11;15.10;99.90
19966;DHT22;10144;50.874;4.762;2023-05-23T01:21:43;15.00;99.90
19966;DHT22;10144;50.874;4.762;2023-05-23T01:30:17;14.90;99.90
19966;DHT22;10144;50.874;4.762;2023-05-23T01:32:47;14.90;99.90
19966;DHT22;10144;50.874;4.762;2023-05-23T01:35:21;14.90;99.90
19966;DHT22;10144;50.874;4.762;2023-05-23T01:37:49;14.90;99.90
19966;DHT22;10144;50.874;4.762;2023-05-23T01:43:23;15.00;99.90
19966;DHT22;10144;50.874;4.762;2023-05-23T01:46:26;15.10;99.90
19966;DHT22;10144;50.874;4.762;2023-05-23T01:49:03;15.00;99.90
19966;DHT22;10144;50.874;4.762;2023-05-23T01:51:32;15.00;99.90
19966;DHT22;10144;50.874;4.762;2023-05-23T01:54:02;15.10;99.90
19966;DHT22;10144;50.874;4.762;2023-05-23T01:56:27;15.10;99.90
19966;DHT22;10144;50.874;4.762;2023-05-23T01:59:06;15.10;99.90
19966;DHT22;10144;50.874;4.762;2023-05-23T02:01:40;15.10;99.90
19966;DHT22;10144;50.874;4.762;2023-05-23T02:04:13;15.20;99.90
19966;DHT22;10144;50.874;4.762;2023-05-23T02:06:53;15.20;99.90
19966;DHT22;10144;50.874;4.762;2023-05-23T02:09:22;15.30;99.90
19966;DHT22;10144;50.874;4.762;2023-05-23T02:11:54;15.30;99.90
19966;DHT22;10144;50.874;4.762;2023-05-23T02:14:23;15.30;99.90
19966;DHT22;10144;50.874;4.762;2023-05-23T02:16:51;15.20;99.90
19966;DHT22;10144;50.874;4.762;2023-05-23T02:19:22;15.20;99.90
19966;DHT22;10144;50.874;4.762;2023-05-23T02:21:57;15.20;99.90
19966;DHT22;10144;50.874;4.762;2023-05-23T02:24:26;15.10;99.90
19966;DHT22;10144;50.874;4.762;2023-05-23T02:26:53;15.10;99.90
19966;DHT22;10144;50.874;4.762;2023-05-23T02:29:23;15.10;99.90
19966;DHT22;10144;50.874;4.762;2023-05-23T02:31:54;15.10;99.90
19966;DHT22;10144;50.874;4.762;2023-05-23T02:34:22;15.10;99.90
19966;DHT22;10144;50.874;4.762;2023-05-23T02:36:54;15.10;99.90
19966;DHT22;10144;50.874;4.762;2023-05-23T02:39:23;15.10;99.90
19966;DHT22;10144;50.874;4.762;2023-05-23T02:41:52;15.10;99.90
19966;DHT22;10144;50.874;4.762;2023-05-23T02:44:20;15.10;99.90
19966;DHT22;10144;50.874;4.762;2023-05-23T02:50:09;15.00;99.90
19966;DHT22;10144;50.874;4.762;2023-05-23T02:52:37;14.80;99.90
19966;DHT22;10144;50.874;4.762;2023-05-23T02:55:05;14.90;99.90
19966;DHT22;10144;50.874;4.762;2023-05-23T02:57:34;14.90;99.90
19966;DHT22;10144;50.874;4.762;2023-05-23T03:00:01;14.90;99.90
19966;DHT22;10144;50.874;4.762;2023-05-23T03:02:29;14.90;99.90
19966;DHT22;10144;50.874;4.762;2023-05-23T03:05:13;14.80;99.90
19966;DHT22;10144;50.874;4.762;2023-05-23T03:07:42;14.80;99.90
19966;DHT22;10144;50.874;4.762;2023-05-23T03:13:25;14.70;99.90
19966;DHT22;10144;50.874;4.762;2023-05-23T03:15:58;14.60;99.90
19966;DHT22;10144;50.874;4.762;2023-05-23T03:18:24;14.60;99.90
19966;DHT22;10144;50.874;4.762;2023-05-23T03:20:53;14.60;99.90
19966;DHT22;10144;50.874;4.762;2023-05-23T03:26:31;14.50;99.90
19966;DHT22;10144;50.874;4.762;2023-05-23T03:32:24;14.50;99.90
19966;DHT22;10144;50.874;4.762;2023-05-23T03:34:50;14.50;99.90
19966;DHT22;10144;50.874;4.762;2023-05-23T03:37:20;14.30;99.90
19966;DHT22;10144;50.874;4.762;2023-05-23T03:39:49;14.30;99.90
19966;DHT22;10144;50.874;4.762;2023-05-23T03:42:18;14.30;99.90
19966;DHT22;10144;50.874;4.762;2023-05-23T03:44:46;14.40;99.90
19966;DHT22;10144;50.874;4.762;2023-05-23T03:47:13;14.30;99.90
19966;DHT22;10144;50.874;4.762;2023-05-23T03:50:10;14.40;99.90
19966;DHT22;10144;50.874;4.762;2023-05-23T03:52:36;14.60;99.90
19966;DHT22;10144;50.874;4.762;2023-05-23T03:55:03;14.80;99.90
19966;DHT22;10144;50.874;4.762;2023-05-23T03:57:31;14.80;99.90
19966;DHT22;10144;50.874;4.762;2023-05-23T04:00:00;14.70;99.90
19966;DHT22;10144;50.874;4.762;2023-05-23T04:02:25;14.60;99.90
19966;DHT22;10144;50.874;4.762;2023-05-23T04:04:53;14.50;99.90
19966;DHT22;10144;50.874;4.762;2023-05-23T04:13:37;14.20;99.90
19966;DHT22;10144;50.874;4.762;2023-05-23T04:16:03;14.30;99.90
19966;DHT22;10144;50.874;4.762;2023-05-23T04:18:31;14.20;99.90
19966;DHT22;10144;50.874;4.762;2023-05-23T04:21:00;14.20;99.90
19966;DHT22;10144;50.874;4.762;2023-05-23T04:23:34;14.30;99.90
19966;DHT22;10144;50.874;4.762;2023-05-23T04:26:04;14.30;99.90
19966;DHT22;10144;50.874;4.762;2023-05-23T04:28:41;14.20;99.90
19966;DHT22;10144;50.874;4.762;2023-05-23T04:31:10;14.20;99.90
19966;DHT22;10144;50.874;4.762;2023-05-23T04:33:40;14.10;99.90
19966;DHT22;10144;50.874;4.762;2023-05-23T04:36:06;14.20;99.90
19966;DHT22;10144;50.874;4.762;2023-05-23T04:38:38;14.30;99.90
19966;DHT22;10144;50.874;4.762;2023-05-23T04:41:06;14.40;99.90
19966;DHT22;10144;50.874;4.762;2023-05-23T04:43:37;14.40;99.90
19966;DHT22;10144;50.874;4.762;2023-05-23T04:46:25;14.60;99.90
19966;DHT22;10144;50.874;4.762;2023-05-23T04:48:54;14.70;99.90
19966;DHT22;10144;50.874;4.762;2023-05-23T04:51:34;14.60;99.90
19966;DHT22;10144;50.874;4.762;2023-05-23T04:54:01;14.60;99.90
19966;DHT22;10144;50.874;4.762;2023-05-23T04:56:33;14.50;99.90
19966;DHT22;10144;50.874;4.762;2023-05-23T04:59:02;14.50;99.90
19966;DHT22;10144;50.874;4.762;2023-05-23T05:01:30;14.60;99.90
19966;DHT22;10144;50.874;4.762;2023-05-23T05:03:59;14.70;99.90
19966;DHT22;10144;50.874;4.762;2023-05-23T05:06:27;14.70;99.90
19966;DHT22;10144;50.874;4.762;2023-05-23T05:08:56;14.80;99.90
19966;DHT22;10144;50.874;4.762;2023-05-23T05:11:28;14.80;99.90
19966;DHT22;10144;50.874;4.762;2023-05-23T05:13:56;15.00;99.90
19966;DHT22;10144;50.874;4.762;2023-05-23T05:16:25;15.10;99.90
19966;DHT22;10144;50.874;4.762;2023-05-23T05:18:54;15.10;99.90
19966;DHT22;10144;50.874;4.762;2023-05-23T05:21:27;15.20;99.90
19966;DHT22;10144;50.874;4.762;2023-05-23T05:23:56;15.30;99.90
19966;DHT22;10144;50.874;4.762;2023-05-23T05:26:41;15.10;99.90
19966;DHT22;10144;50.874;4.762;2023-05-23T05:29:10;15.10;99.90
19966;DHT22;10144;50.874;4.762;2023-05-23T05:31:42;15.00;99.90
19966;DHT22;10144;50.874;4.762;2023-05-23T05:34:10;15.00;99.90
19966;DHT22;10144;50.874;4.762;2023-05-23T05:36:42;14.90;99.90
19966;DHT22;10144;50.874;4.762;2023-05-23T05:39:17;14.80;99.90
19966;DHT22;10144;50.874;4.762;2023-05-23T05:41:42;14.80;99.90
19966;DHT22;10144;50.874;4.762;2023-05-23T05:44:11;14.90;99.90
19966;DHT22;10144;50.874;4.762;2023-05-23T05:46:40;15.00;99.90
19966;DHT22;10144;50.874;4.762;2023-05-23T05:49:06;15.00;99.90
19966;DHT22;10144;50.874;4.762;2023-05-23T05:51:35;14.90;99.90
19966;DHT22;10144;50.874;4.762;2023-05-23T05:54:03;15.00;99.90
19966;DHT22;10144;50.874;4.762;2023-05-23T05:56:31;15.00;99.90
19966;DHT22;10144;50.874;4.762;2023-05-23T05:58:59;15.00;99.90
19966;DHT22;10144;50.874;4.762;2023-05-23T06:01:28;15.00;99.90
19966;DHT22;10144;50.874;4.762;2023-05-23T06:03:56;14.90;99.90
19966;DHT22;10144;50.874;4.762;2023-05-23T06:06:26;15.00;99.90
19966;DHT22;10144;50.874;4.762;2023-05-23T06:08:54;14.90;99.90
19966;DHT22;10144;50.874;4.762;2023-05-23T06:11:23;15.00;99.90
19966;DHT22;10144;50.874;4.762;2023-05-23T06:13:52;14.90;99.90
19966;DHT22;10144;50.874;4.762;2023-05-23T06:16:18;14.80;99.90
19966;DHT22;10144;50.874;4.762;2023-05-23T06:18:47;14.60;99.90
19966;DHT22;10144;50.874;4.762;2023-05-23T06:21:15;14.50;99.90
19966;DHT22;10144;50.874;4.762;2023-05-23T06:23:41;14.40;99.90
19966;DHT22;10144;50.874;4.762;2023-05-23T06:26:13;14.30;99.90
19966;DHT22;10144;50.874;4.762;2023-05-23T06:28:42;14.30;99.90
19966;DHT22;10144;50.874;4.762;2023-05-23T06:31:32;14.40;99.90
19966;DHT22;10144;50.874;4.762;2023-05-23T06:34:01;14.40;99.90
19966;DHT22;10144;50.874;4.762;2023-05-23T06:36:29;14.30;99.90
19966;DHT22;10144;50.874;4.762;2023-05-23T06:38:59;14.20;99.90
19966;DHT22;10144;50.874;4.762;2023-05-23T06:41:30;14.20;99.90
19966;DHT22;10144;50.874;4.762;2023-05-23T06:43:57;14.20;99.90
19966;DHT22;10144;50.874;4.762;2023-05-23T06:46:23;14.20;99.90
19966;DHT22;10144;50.874;4.762;2023-05-23T06:48:51;14.00;99.90
19966;DHT22;10144;50.874;4.762;2023-05-23T06:51:20;14.10;99.90
19966;DHT22;10144;50.874;4.762;2023-05-23T06:53:47;14.00;99.90
19966;DHT22;10144;50.874;4.762;2023-05-23T06:56:15;14.10;99.90
19966;DHT22;10144;50.874;4.762;2023-05-23T06:58:42;14.20;99.90
19966;DHT22;10144;50.874;4.762;2023-05-23T07:01:08;14.20;99.90
19966;DHT22;10144;50.874;4.762;2023-05-23T07:03:38;14.40;99.90
19966;DHT22;10144;50.874;4.762;2023-05-23T07:06:13;14.60;99.90
19966;DHT22;10144;50.874;4.762;2023-05-23T07:08:42;14.70;99.90
19966;DHT22;10144;50.874;4.762;2023-05-23T07:11:08;14.80;99.90
19966;DHT22;10144;50.874;4.762;2023-05-23T07:13:33;14.80;99.90
19966;DHT22;10144;50.874;4.762;2023-05-23T07:15:59;14.90;99.90
19966;DHT22;10144;50.874;4.762;2023-05-23T07:18:25;14.90;99.90
19966;DHT22;10144;50.874;4.762;2023-05-23T07:20:52;14.80;99.90
19966;DHT22;10144;50.874;4.762;2023-05-23T07:23:18;14.70;99.90
19966;DHT22;10144;50.874;4.762;2023-05-23T07:25:44;14.80;99.90
19966;DHT22;10144;50.874;4.762;2023-05-23T07:28:11;14.80;99.90
19966;DHT22;10144;50.874;4.762;2023-05-23T07:30:37;15.00;99.90
19966;DHT22;10144;50.874;4.762;2023-05-23T07:33:03;15.10;99.90
19966;DHT22;10144;50.874;4.762;2023-05-23T07:35:30;15.20;99.90
19966;DHT22;10144;50.874;4.762;2023-05-23T07:37:56;15.20;99.90
19966;DHT22;10144;50.874;4.762;2023-05-23T07:40:22;15.30;99.90
19966;DHT22;10144;50.874;4.762;2023-05-23T07:42:47;15.30;99.90
19966;DHT22;10144;50.874;4.762;2023-05-23T07:45:13;15.30;99.90
19966;DHT22;10144;50.874;4.762;2023-05-23T07:47:40;15.20;99.90
19966;DHT22;10144;50.874;4.762;2023-05-23T07:50:06;15.10;99.90
19966;DHT22;10144;50.874;4.762;2023-05-23T07:52:32;15.00;99.90
19966;DHT22;10144;50.874;4.762;2023-05-23T07:54:59;15.10;99.90
19966;DHT22;10144;50.874;4.762;2023-05-23T07:57:25;15.00;99.90
19966;DHT22;10144;50.874;4.762;2023-05-23T07:59:52;14.90;99.90
19966;DHT22;10144;50.874;4.762;2023-05-23T08:02:19;14.70;99.90
19966;DHT22;10144;50.874;4.762;2023-05-23T08:04:45;14.60;99.90
19966;DHT22;10144;50.874;4.762;2023-05-23T08:07:11;14.70;99.90
19966;DHT22;10144;50.874;4.762;2023-05-23T08:09:38;14.70;99.90
19966;DHT22;10144;50.874;4.762;2023-05-23T08:12:07;14.70;99.90
19966;DHT22;10144;50.874;4.762;2023-05-23T08:14:33;14.70;99.90
19966;DHT22;10144;50.874;4.762;2023-05-23T08:16:59;14.80;99.90
19966;DHT22;10144;50.874;4.762;2023-05-23T08:19:26;14.80;99.90
19966;DHT22;10144;50.874;4.762;2023-05-23T08:21:51;14.80;99.90
19966;DHT22;10144;50.874;4.762;2023-05-23T08:24:20;14.80;99.90
19966;DHT22;10144;50.874;4.762;2023-05-23T08:26:46;14.80;99.90
19966;DHT22;10144;50.874;4.762;2023-05-23T08:29:13;15.00;99.90
19966;DHT22;10144;50.874;4.762;2023-05-23T08:31:39;15.10;99.90
19966;DHT22;10144;50.874;4.762;2023-05-23T08:34:06;15.30;99.90
19966;DHT22;10144;50.874;4.762;2023-05-23T08:36:32;15.30;99.90
19966;DHT22;10144;50.874;4.762;2023-05-23T08:39:00;15.40;99.90
19966;DHT22;10144;50.874;4.762;2023-05-23T08:41:26;15.70;99.90
19966;DHT22;10144;50.874;4.762;2023-05-23T08:43:53;15.80;99.90
19966;DHT22;10144;50.874;4.762;2023-05-23T08:46:21;16.10;99.90
19966;DHT22;10144;50.874;4.762;2023-05-23T08:48:50;16.50;99.90
19966;DHT22;10144;50.874;4.762;2023-05-23T08:51:18;17.00;99.90
19966;DHT22;10144;50.874;4.762;2023-05-23T08:53:45;17.30;99.90
19966;DHT22;10144;50.874;4.762;2023-05-23T08:56:12;17.60;99.90
19966;DHT22;10144;50.874;4.762;2023-05-23T08:58:40;17.60;99.90
19966;DHT22;10144;50.874;4.762;2023-05-23T09:01:09;17.30;99.90
19966;DHT22;10144;50.874;4.762;2023-05-23T09:03:36;17.20;99.90
19966;DHT22;10144;50.874;4.762;2023-05-23T09:06:03;16.90;99.90
19966;DHT22;10144;50.874;4.762;2023-05-23T09:08:31;16.80;99.90
19966;DHT22;10144;50.874;4.762;2023-05-23T09:10:56;16.50;99.90
19966;DHT22;10144;50.874;4.762;2023-05-23T09:13:22;16.30;99.90
19966;DHT22;10144;50.874;4.762;2023-05-23T09:16:03;16.30;99.90
19966;DHT22;10144;50.874;4.762;2023-05-23T09:18:33;16.40;99.90
19966;DHT22;10144;50.874;4.762;2023-05-23T09:27:44;16.80;99.90
19966;DHT22;10144;50.874;4.762;2023-05-23T09:30:10;16.80;99.90
19966;DHT22;10144;50.874;4.762;2023-05-23T09:32:36;17.00;99.90
19966;DHT22;10144;50.874;4.762;2023-05-23T09:35:06;17.00;99.90
19966;DHT22;10144;50.874;4.762;2023-05-23T09:37:35;17.10;99.90
19966;DHT22;10144;50.874;4.762;2023-05-23T09:40:06;17.20;99.90
19966;DHT22;10144;50.874;4.762;2023-05-23T09:42:35;17.10;99.90
19966;DHT22;10144;50.874;4.762;2023-05-23T09:45:02;17.10;99.90
19966;DHT22;10144;50.874;4.762;2023-05-23T09:47:27;17.10;99.90
19966;DHT22;10144;50.874;4.762;2023-05-23T09:49:53;17.10;99.90
19966;DHT22;10144;50.874;4.762;2023-05-23T09:52:19;17.10;99.90
19966;DHT22;10144;50.874;4.762;2023-05-23T09:54:48;17.10;99.90
19966;DHT22;10144;50.874;4.762;2023-05-23T09:57:14;17.10;99.90
19966;DHT22;10144;50.874;4.762;2023-05-23T09:59:46;17.40;99.90
19966;DHT22;10144;50.874;4.762;2023-05-23T10:02:15;17.50;99.90
19966;DHT22;10144;50.874;4.762;2023-05-23T10:04:42;17.30;99.90
19966;DHT22;10144;50.874;4.762;2023-05-23T10:07:19;17.10;99.90
19966;DHT22;10144;50.874;4.762;2023-05-23T10:10:02;17.10;99.90
19966;DHT22;10144;50.874;4.762;2023-05-23T10:12:40;16.90;99.90
19966;DHT22;10144;50.874;4.762;2023-05-23T10:15:08;17.10;99.90
19966;DHT22;10144;50.874;4.762;2023-05-23T10:18:04;17.10;99.90
19966;DHT22;10144;50.874;4.762;2023-05-23T10:20:31;17.10;99.90
19966;DHT22;10144;50.874;4.762;2023-05-23T10:23:01;16.80;99.90
19966;DHT22;10144;50.874;4.762;2023-05-23T10:25:28;16.70;99.90
19966;DHT22;10144;50.874;4.762;2023-05-23T10:27:58;16.60;99.90
19966;DHT22;10144;50.874;4.762;2023-05-23T10:30:27;16.60;99.90
19966;DHT22;10144;50.874;4.762;2023-05-23T10:32:54;16.70;99.90
19966;DHT22;10144;50.874;4.762;2023-05-23T10:35:28;16.80;99.90
19966;DHT22;10144;50.874;4.762;2023-05-23T10:41:05;17.00;99.90
19966;DHT22;10144;50.874;4.762;2023-05-23T10:43:50;17.20;99.90
19966;DHT22;10144;50.874;4.762;2023-05-23T10:46:21;17.30;99.90
19966;DHT22;10144;50.874;4.762;2023-05-23T10:48:46;17.20;99.90
19966;DHT22;10144;50.874;4.762;2023-05-23T10:51:15;17.00;99.90
19966;DHT22;10144;50.874;4.762;2023-05-23T10:53:45;16.90;99.90
19966;DHT22;10144;50.874;4.762;2023-05-23T10:56:22;17.10;99.90
19966;DHT22;10144;50.874;4.762;2023-05-23T10:58:55;17.40;99.90
19966;DHT22;10144;50.874;4.762;2023-05-23T11:01:22;17.80;99.90
19966;DHT22;10144;50.874;4.762;2023-05-23T11:03:51;18.40;99.90
19966;DHT22;10144;50.874;4.762;2023-05-23T11:06:42;19.10;99.90
19966;DHT22;10144;50.874;4.762;2023-05-23T11:09:18;20.00;99.90
19966;DHT22;10144;50.874;4.762;2023-05-23T11:11:54;20.60;99.90
19966;DHT22;10144;50.874;4.762;2023-05-23T11:16:58;20.30;99.90
19966;DHT22;10144;50.874;4.762;2023-05-23T11:19:28;20.30;99.90
19966;DHT22;10144;50.874;4.762;2023-05-23T11:21:58;19.80;99.90
19966;DHT22;10144;50.874;4.762;2023-05-23T11:27:14;19.30;99.90
19966;DHT22;10144;50.874;4.762;2023-05-23T11:29:41;19.10;99.90
19966;DHT22;10144;50.874;4.762;2023-05-23T11:32:11;19.40;99.90
19966;DHT22;10144;50.874;4.762;2023-05-23T11:34:38;20.30;99.90
19966;DHT22;10144;50.874;4.762;2023-05-23T11:37:03;21.00;99.90
19966;DHT22;10144;50.874;4.762;2023-05-23T11:39:29;21.20;99.90
19966;DHT22;10144;50.874;4.762;2023-05-23T11:41:59;20.80;99.90
19966;DHT22;10144;50.874;4.762;2023-05-23T11:44:25;20.50;99.90
19966;DHT22;10144;50.874;4.762;2023-05-23T11:47:03;20.10;99.90
19966;DHT22;10144;50.874;4.762;2023-05-23T11:49:34;20.20;99.90
19966;DHT22;10144;50.874;4.762;2023-05-23T11:52:01;19.90;99.90
19966;DHT22;10144;50.874;4.762;2023-05-23T11:54:27;19.80;99.90
19966;DHT22;10144;50.874;4.762;2023-05-23T11:56:53;19.70;99.90
19966;DHT22;10144;50.874;4.762;2023-05-23T11:59:21;19.70;99.90
19966;DHT22;10144;50.874;4.762;2023-05-23T12:01:47;19.90;99.90
19966;DHT22;10144;50.874;4.762;2023-05-23T12:04:13;19.80;99.90
19966;DHT22;10144;50.874;4.762;2023-05-23T12:06:39;19.50;99.90
19966;DHT22;10144;50.874;4.762;2023-05-23T12:09:10;19.50;99.90
19966;DHT22;10144;50.874;4.762;2023-05-23T12:11:38;19.50;99.90
19966;DHT22;10144;50.874;4.762;2023-05-23T12:14:04;19.80;99.90
19966;DHT22;10144;50.874;4.762;2023-05-23T12:16:34;20.20;99.90
19966;DHT22;10144;50.874;4.762;2023-05-23T12:19:03;20.50;99.90
19966;DHT22;10144;50.874;4.762;2023-05-23T12:21:48;20.50;99.90
19966;DHT22;10144;50.874;4.762;2023-05-23T12:24:18;20.10;99.90
19966;DHT22;10144;50.874;4.762;2023-05-23T12:29:13;20.10;99.90
19966;DHT22;10144;50.874;4.762;2023-05-23T12:31:39;20.30;99.90
19966;DHT22;10144;50.874;4.762;2023-05-23T12:34:05;20.40;99.90
19966;DHT22;10144;50.874;4.762;2023-05-23T12:36:30;20.00;99.90
19966;DHT22;10144;50.874;4.762;2023-05-23T12:39:05;19.90;99.90
19966;DHT22;10144;50.874;4.762;2023-05-23T12:41:32;19.80;99.90
19966;DHT22;10144;50.874;4.762;2023-05-23T12:43:58;19.90;99.90
19966;DHT22;10144;50.874;4.762;2023-05-23T12:46:25;20.10;99.90
19966;DHT22;10144;50.874;4.762;2023-05-23T12:48:51;20.30;99.90
19966;DHT22;10144;50.874;4.762;2023-05-23T12:51:17;20.30;99.90
19966;DHT22;10144;50.874;4.762;2023-05-23T12:53:44;20.10;99.90
19966;DHT22;10144;50.874;4.762;2023-05-23T12:56:10;19.90;99.90
19966;DHT22;10144;50.874;4.762;2023-05-23T12:58:36;19.90;99.90
19966;DHT22;10144;50.874;4.762;2023-05-23T13:01:02;20.10;99.90
19966;DHT22;10144;50.874;4.762;2023-05-23T13:03:28;20.20;99.90
19966;DHT22;10144;50.874;4.762;2023-05-23T13:05:55;20.40;99.90
19966;DHT22;10144;50.874;4.762;2023-05-23T13:08:22;20.50;99.90
19966;DHT22;10144;50.874;4.762;2023-05-23T13:10:48;20.50;99.90
19966;DHT22;10144;50.874;4.762;2023-05-23T13:13:14;20.10;99.90
19966;DHT22;10144;50.874;4.762;2023-05-23T13:15:39;19.90;99.90
19966;DHT22;10144;50.874;4.762;2023-05-23T13:18:05;19.80;99.90
19966;DHT22;10144;50.874;4.762;2023-05-23T13:20:31;20.00;99.90
19966;DHT22;10144;50.874;4.762;2023-05-23T13:22:58;20.00;99.90
19966;DHT22;10144;50.874;4.762;2023-05-23T13:25:24;20.20;99.90
19966;DHT22;10144;50.874;4.762;2023-05-23T13:27:50;20.00;99.90
19966;DHT22;10144;50.874;4.762;2023-05-23T13:30:18;20.10;99.90
19966;DHT22;10144;50.874;4.762;2023-05-23T13:32:43;20.30;99.90
19966;DHT22;10144;50.874;4.762;2023-05-23T13:35:09;20.50;99.90
19966;DHT22;10144;50.874;4.762;2023-05-23T13:37:36;20.50;99.90
19966;DHT22;10144;50.874;4.762;2023-05-23T13:40:03;20.30;99.90
19966;DHT22;10144;50.874;4.762;2023-05-23T13:42:29;20.30;99.90
19966;DHT22;10144;50.874;4.762;2023-05-23T13:44:55;20.30;99.90
19966;DHT22;10144;50.874;4.762;2023-05-23T13:47:20;20.20;99.90
19966;DHT22;10144;50.874;4.762;2023-05-23T13:49:46;20.20;99.90
19966;DHT22;10144;50.874;4.762;2023-05-23T13:52:12;20.30;99.90
19966;DHT22;10144;50.874;4.762;2023-05-23T13:54:38;20.30;99.90
19966;DHT22;10144;50.874;4.762;2023-05-23T13:57:04;20.30;99.90
19966;DHT22;10144;50.874;4.762;2023-05-23T13:59:31;20.40;99.90
19966;DHT22;10144;50.874;4.762;2023-05-23T14:01:57;20.40;99.90
19966;DHT22;10144;50.874;4.762;2023-05-23T14:04:23;20.50;99.90
19966;DHT22;10144;50.874;4.762;2023-05-23T14:06:49;20.80;99.90
19966;DHT22;10144;50.874;4.762;2023-05-23T14:09:15;20.70;99.90
19966;DHT22;10144;50.874;4.762;2023-05-23T14:11:42;20.80;99.90
19966;DHT22;10144;50.874;4.762;2023-05-23T14:14:08;20.80;99.90
19966;DHT22;10144;50.874;4.762;2023-05-23T14:16:33;20.90;99.90
19966;DHT22;10144;50.874;4.762;2023-05-23T14:18:59;21.00;99.90
19966;DHT22;10144;50.874;4.762;2023-05-23T14:21:24;21.10;99.90
19966;DHT22;10144;50.874;4.762;2023-05-23T14:23:50;21.00;99.90
19966;DHT22;10144;50.874;4.762;2023-05-23T14:26:16;21.00;99.90
19966;DHT22;10144;50.874;4.762;2023-05-23T14:28:41;20.80;99.90
19966;DHT22;10144;50.874;4.762;2023-05-23T14:31:07;20.70;99.90
19966;DHT22;10144;50.874;4.762;2023-05-23T14:33:33;20.80;99.90
19966;DHT22;10144;50.874;4.762;2023-05-23T14:35:59;20.80;99.90
19966;DHT22;10144;50.874;4.762;2023-05-23T14:38:25;20.70;99.90
19966;DHT22;10144;50.874;4.762;2023-05-23T14:40:51;20.60;99.90
19966;DHT22;10144;50.874;4.762;2023-05-23T14:43:18;20.30;99.90
19966;DHT22;10144;50.874;4.762;2023-05-23T14:45:44;20.20;99.90
19966;DHT22;10144;50.874;4.762;2023-05-23T14:48:09;20.30;99.90
19966;DHT22;10144;50.874;4.762;2023-05-23T14:50:35;20.30;99.90
19966;DHT22;10144;50.874;4.762;2023-05-23T14:53:01;20.10;99.90
19966;DHT22;10144;50.874;4.762;2023-05-23T14:55:27;19.70;99.90
19966;DHT22;10144;50.874;4.762;2023-05-23T14:57:53;19.60;99.90
19966;DHT22;10144;50.874;4.762;2023-05-23T15:00:19;19.60;99.90
19966;DHT22;10144;50.874;4.762;2023-05-23T15:02:45;19.70;99.90
19966;DHT22;10144;50.874;4.762;2023-05-23T15:05:12;19.80;99.90
19966;DHT22;10144;50.874;4.762;2023-05-23T15:07:38;19.90;99.90
19966;DHT22;10144;50.874;4.762;2023-05-23T15:10:04;19.80;99.90
19966;DHT22;10144;50.874;4.762;2023-05-23T15:12:30;19.60;99.90
19966;DHT22;10144;50.874;4.762;2023-05-23T15:14:56;19.40;99.90
19966;DHT22;10144;50.874;4.762;2023-05-23T15:17:31;19.10;99.90
19966;DHT22;10144;50.874;4.762;2023-05-23T15:19:57;19.10;99.90
19966;DHT22;10144;50.874;4.762;2023-05-23T15:22:23;19.10;99.90
19966;DHT22;10144;50.874;4.762;2023-05-23T15:24:49;19.00;99.90
19966;DHT22;10144;50.874;4.762;2023-05-23T15:27:14;18.90;99.90
19966;DHT22;10144;50.874;4.762;2023-05-23T15:29:40;18.80;99.90
19966;DHT22;10144;50.874;4.762;2023-05-23T15:32:06;18.80;99.90
19966;DHT22;10144;50.874;4.762;2023-05-23T15:34:32;18.90;99.90
19966;DHT22;10144;50.874;4.762;2023-05-23T15:36:58;19.00;99.90
19966;DHT22;10144;50.874;4.762;2023-05-23T15:39:25;19.00;99.90
19966;DHT22;10144;50.874;4.762;2023-05-23T15:41:52;18.90;99.90
19966;DHT22;10144;50.874;4.762;2023-05-23T15:44:18;18.80;99.90
19966;DHT22;10144;50.874;4.762;2023-05-23T15:46:46;18.80;99.90
19966;DHT22;10144;50.874;4.762;2023-05-23T15:49:11;18.80;99.90
19966;DHT22;10144;50.874;4.762;2023-05-23T15:51:37;18.90;99.90
19966;DHT22;10144;50.874;4.762;2023-05-23T15:54:03;19.10;99.90
19966;DHT22;10144;50.874;4.762;2023-05-23T15:56:34;18.90;99.90
19966;DHT22;10144;50.874;4.762;2023-05-23T15:59:00;18.80;99.90
19966;DHT22;10144;50.874;4.762;2023-05-23T16:01:26;18.90;99.90
19966;DHT22;10144;50.874;4.762;2023-05-23T16:03:51;18.80;99.90
19966;DHT22;10144;50.874;4.762;2023-05-23T16:06:17;18.80;99.90
19966;DHT22;10144;50.874;4.762;2023-05-23T16:08:43;18.90;99.90
19966;DHT22;10144;50.874;4.762;2023-05-23T16:11:09;19.00;99.90
19966;DHT22;10144;50.874;4.762;2023-05-23T16:13:35;19.10;99.90
19966;DHT22;10144;50.874;4.762;2023-05-23T16:16:02;19.00;99.90
19966;DHT22;10144;50.874;4.762;2023-05-23T16:18:28;19.00;99.90
19966;DHT22;10144;50.874;4.762;2023-05-23T16:20:54;19.00;99.90
19966;DHT22;10144;50.874;4.762;2023-05-23T16:23:23;19.00;99.90
19966;DHT22;10144;50.874;4.762;2023-05-23T16:25:48;18.90;99.90
19966;DHT22;10144;50.874;4.762;2023-05-23T16:28:16;18.80;99.90
19966;DHT22;10144;50.874;4.762;2023-05-23T16:30:42;18.70;99.90
19966;DHT22;10144;50.874;4.762;2023-05-23T16:33:08;18.60;99.90